createdAt,value
2019-04-01T21:11:54.000Z,17.20
2019-04-01T21:14:24.149Z,16.30
2019-04-01T21:16:53.883Z,16.10
2019-04-01T21:19:23.423Z,26.80
2019-04-01T21:21:53.137Z,21.50
2019-04-01T21:24:22.728Z,19.30
2019-04-01T21:26:52.305Z,18.20
2019-04-01T21:29:22.814Z,17.60
2019-04-01T21:31:52.824Z,17.30
2019-04-01T21:34:22.468Z,16.90
2019-04-01T21:36:52.117Z,16.70
2019-04-01T21:39:21.723Z,16.70
2019-04-01T21:41:51.294Z,16.60
2019-04-01T21:44:20.860Z,16.40
2019-04-01T21:46:50.514Z,16.40
2019-04-01T21:49:20.164Z,16.30
2019-04-01T21:51:49.841Z,16.20
2019-04-01T21:54:19.416Z,16.20
2019-04-01T21:56:49.135Z,16.30
2019-04-01T21:59:18.710Z,16.20
2019-04-01T22:01:48.344Z,16.00
2019-04-01T22:04:18.064Z,16.10
2019-04-01T22:06:47.783Z,16.00
2019-04-01T22:09:17.497Z,15.90
2019-04-01T22:11:47.149Z,15.90
2019-04-01T22:14:16.717Z,16.00
2019-04-01T22:16:47.188Z,16.00
2019-04-01T22:19:17.422Z,16.00
2019-04-01T22:21:47.001Z,16.00
2019-04-01T22:24:16.660Z,16.10
2019-04-01T22:26:46.152Z,16.00
2019-04-01T22:29:15.800Z,15.90
2019-04-01T22:31:45.368Z,15.90
2019-04-01T22:34:15.036Z,16.00
2019-04-01T22:36:44.684Z,15.70
2019-04-01T22:39:26.283Z,15.60
2019-04-01T22:41:45.523Z,15.50
2019-04-01T22:44:15.094Z,15.60
2019-04-01T22:46:44.833Z,15.60
2019-04-01T22:49:14.597Z,15.60
2019-04-01T22:51:44.166Z,15.70
2019-04-01T22:54:13.805Z,15.70
2019-04-01T22:56:43.379Z,15.50
2019-04-01T22:59:12.951Z,15.40
2019-04-01T23:01:42.453Z,15.30
2019-04-01T23:04:12.019Z,15.40
2019-04-01T23:06:41.604Z,15.50
2019-04-01T23:09:11.167Z,15.40
2019-04-01T23:11:40.970Z,15.30
2019-04-01T23:14:11.675Z,15.20
2019-04-01T23:16:41.673Z,15.20
2019-04-01T23:19:11.307Z,15.20
2019-04-01T23:21:40.958Z,15.30
2019-04-01T23:24:10.688Z,15.30
2019-04-01T23:26:40.257Z,15.10
2019-04-01T23:29:09.898Z,15.00
2019-04-01T23:31:39.463Z,14.90
2019-04-01T23:34:09.049Z,14.90
2019-04-01T23:36:38.692Z,14.90
2019-04-01T23:39:08.517Z,14.90
2019-04-01T23:41:38.159Z,14.90
2019-04-01T23:44:07.668Z,15.00
2019-04-01T23:46:37.569Z,14.90
2019-04-01T23:49:07.210Z,14.80
2019-04-01T23:51:36.934Z,14.80
2019-04-01T23:54:06.604Z,14.80
2019-04-01T23:56:36.103Z,14.70
2019-04-01T23:59:05.756Z,14.70
